createdAt,value
2019-05-17T00:01:27.057Z,12.60
2019-05-17T00:03:57.281Z,12.59
2019-05-17T00:06:27.662Z,12.59
2019-05-17T00:08:57.753Z,12.63
2019-05-17T00:11:27.868Z,12.63
2019-05-17T00:13:58.229Z,12.56
2019-05-17T00:16:28.388Z,12.50
2019-05-17T00:18:58.522Z,12.56
2019-05-17T00:21:28.682Z,12.54
2019-05-17T00:23:58.852Z,12.50
2019-05-17T00:26:31.609Z,12.53
2019-05-17T00:29:01.785Z,12.43
2019-05-17T00:31:32.056Z,12.48
2019-05-17T00:34:02.281Z,12.50
2019-05-17T00:36:32.455Z,12.50
2019-05-17T00:39:02.827Z,12.54
2019-05-17T00:41:32.988Z,12.42
2019-05-17T00:44:03.136Z,12.48
2019-05-17T00:46:33.320Z,12.47
2019-05-17T00:49:03.541Z,12.33
2019-05-17T00:51:33.691Z,12.35
2019-05-17T00:54:03.869Z,12.49
2019-05-17T00:56:37.205Z,12.50
2019-05-17T00:59:07.595Z,12.43
2019-05-17T01:01:37.777Z,12.43
2019-05-17T01:04:07.857Z,12.37
2019-05-17T01:06:38.038Z,12.43
2019-05-17T01:09:08.622Z,12.40
2019-05-17T01:11:38.871Z,12.43
2019-05-17T01:14:09.127Z,12.37
2019-05-17T01:16:39.291Z,12.36
2019-05-17T01:19:09.435Z,12.40
2019-05-17T01:21:39.621Z,12.32
2019-05-17T01:24:09.781Z,12.33
2019-05-17T01:26:39.990Z,12.25
2019-05-17T01:29:10.159Z,12.23
2019-05-17T01:31:41.747Z,12.25
2019-05-17T01:34:11.921Z,12.25
2019-05-17T01:36:42.190Z,12.19
2019-05-17T01:39:17.306Z,12.15
2019-05-17T01:41:44.200Z,12.13
2019-05-17T01:44:16.540Z,12.09
2019-05-17T01:46:46.571Z,12.05
2019-05-17T01:49:16.683Z,12.16
2019-05-17T01:51:46.850Z,12.03
2019-05-17T01:54:17.611Z,12.00
2019-05-17T01:56:48.904Z,12.01
2019-05-17T01:59:20.274Z,12.06
2019-05-17T02:01:52.092Z,12.07
2019-05-17T02:04:22.379Z,12.01
2019-05-17T02:06:52.556Z,11.95
2019-05-17T02:09:34.846Z,12.02
2019-05-17T02:11:57.186Z,11.98
2019-05-17T02:14:27.453Z,11.94
2019-05-17T02:16:57.799Z,11.93
2019-05-17T02:19:29.045Z,11.88
2019-05-17T02:21:59.123Z,11.90
2019-05-17T02:24:29.337Z,11.92
2019-05-17T02:26:59.622Z,11.82
2019-05-17T02:29:32.046Z,11.91
2019-05-17T02:32:03.786Z,11.80
2019-05-17T02:34:34.764Z,11.88
2019-05-17T02:37:04.885Z,11.98
2019-05-17T02:39:52.386Z,11.86
2019-05-17T02:42:06.904Z,11.88
2019-05-17T02:44:37.523Z,11.86
2019-05-17T02:47:07.686Z,11.79
2019-05-17T02:49:37.840Z,11.80
2019-05-17T02:52:12.188Z,11.97
2019-05-17T02:54:43.745Z,11.73
2019-05-17T02:57:14.147Z,11.87
2019-05-17T02:59:45.614Z,11.96
2019-05-17T03:02:15.755Z,11.99
2019-05-17T03:04:45.896Z,11.85
2019-05-17T03:07:16.137Z,11.88
2019-05-17T03:09:46.891Z,11.88
2019-05-17T03:12:17.097Z,11.88
2019-05-17T03:14:52.651Z,11.86
2019-05-17T03:17:22.986Z,11.85
2019-05-17T03:19:54.942Z,11.91
2019-05-17T03:22:25.105Z,11.90
2019-05-17T03:24:55.259Z,11.95
2019-05-17T03:27:25.395Z,11.85
2019-05-17T03:29:55.572Z,11.90
2019-05-17T03:32:27.209Z,11.96
2019-05-17T03:34:57.997Z,11.91
2019-05-17T03:37:36.348Z,11.91
2019-05-17T03:40:04.595Z,11.93
2019-05-17T03:42:33.313Z,11.72
2019-05-17T03:45:03.492Z,11.84
2019-05-17T03:47:33.786Z,11.82
2019-05-17T03:50:04.440Z,11.80
2019-05-17T03:52:34.503Z,11.77
2019-05-17T03:55:05.009Z,11.79
2019-05-17T03:57:36.259Z,11.73
2019-05-17T04:00:07.021Z,11.67
2019-05-17T04:02:37.245Z,11.70
2019-05-17T04:05:07.590Z,11.71
2019-05-17T04:07:37.896Z,11.73
2019-05-17T04:10:08.247Z,11.70
2019-05-17T04:12:38.445Z,11.69
2019-05-17T04:15:08.910Z,11.62
2019-05-17T04:17:39.088Z,11.71
2019-05-17T04:20:09.421Z,11.65
2019-05-17T04:22:39.602Z,11.54
2019-05-17T04:25:13.123Z,11.66
2019-05-17T04:27:43.596Z,11.73
2019-05-17T04:30:14.029Z,11.56
2019-05-17T04:32:44.696Z,11.64
2019-05-17T04:35:16.620Z,11.67
2019-05-17T04:37:47.498Z,11.62
2019-05-17T04:40:17.821Z,11.65
2019-05-17T04:42:47.987Z,11.55
2019-05-17T04:45:18.121Z,11.73
2019-05-17T04:47:48.279Z,11.73
2019-05-17T04:50:18.810Z,11.74
2019-05-17T04:52:49.146Z,11.72
2019-05-17T04:55:19.389Z,11.75
2019-05-17T04:57:52.656Z,11.80
2019-05-17T05:00:22.009Z,11.68
2019-05-17T05:02:53.146Z,11.68
2019-05-17T05:05:23.426Z,11.70
2019-05-17T05:07:53.793Z,11.74
2019-05-17T05:10:24.092Z,11.68
2019-05-17T05:12:54.250Z,11.57
2019-05-17T05:15:39.569Z,11.70
2019-05-17T05:18:12.917Z,11.66
2019-05-17T05:20:43.437Z,11.64
2019-05-17T05:23:15.107Z,11.66
2019-05-17T05:25:45.378Z,11.69
2019-05-17T05:28:15.630Z,11.73
2019-05-17T05:30:45.794Z,11.72
2019-05-17T05:33:15.963Z,11.64
2019-05-17T05:35:46.109Z,11.70
2019-05-17T05:38:16.266Z,11.76
2019-05-17T05:40:46.420Z,11.79
2019-05-17T05:43:16.642Z,11.82
2019-05-17T05:45:46.738Z,11.74
2019-05-17T05:48:17.060Z,11.74
2019-05-17T05:50:47.207Z,11.87
2019-05-17T05:53:18.418Z,11.75
2019-05-17T05:55:48.529Z,11.80
2019-05-17T05:58:18.818Z,11.84
2019-05-17T06:00:48.932Z,11.85
2019-05-17T06:03:19.278Z,11.87
2019-05-17T06:05:49.395Z,11.82
2019-05-17T06:08:19.648Z,11.94
2019-05-17T06:10:49.770Z,11.98
2019-05-17T06:13:21.858Z,11.91
2019-05-17T06:15:51.881Z,11.86
2019-05-17T06:18:22.697Z,11.90
2019-05-17T06:20:56.659Z,11.88
2019-05-17T06:23:28.049Z,11.99
2019-05-17T06:25:58.174Z,12.02
2019-05-17T06:28:28.309Z,12.02
2019-05-17T06:30:58.451Z,12.10
2019-05-17T06:33:33.769Z,12.17
2019-05-17T06:36:02.703Z,12.11
2019-05-17T06:38:33.415Z,12.13
2019-05-17T06:41:03.616Z,12.01
2019-05-17T06:43:33.856Z,12.24
2019-05-17T06:46:04.189Z,12.29
2019-05-17T06:48:34.506Z,12.38
2019-05-17T06:51:04.764Z,12.54
2019-05-17T06:53:34.991Z,12.55
2019-05-17T06:56:06.260Z,12.63
2019-05-17T06:58:38.115Z,12.72
2019-05-17T07:01:09.515Z,12.70
2019-05-17T07:03:40.070Z,12.77
2019-05-17T07:06:13.545Z,12.98
2019-05-17T07:08:43.719Z,12.97
2019-05-17T07:11:13.803Z,12.84
2019-05-17T07:13:43.950Z,12.96
2019-05-17T07:16:14.173Z,13.06
2019-05-17T07:18:44.425Z,13.03
2019-05-17T07:21:14.638Z,13.06
2019-05-17T07:23:44.843Z,13.12
2019-05-17T07:26:15.015Z,13.20
2019-05-17T07:28:45.234Z,13.20
2019-05-17T07:31:16.538Z,13.26
2019-05-17T07:33:50.417Z,13.28
2019-05-17T07:36:20.311Z,13.24
2019-05-17T07:38:50.596Z,13.40
2019-05-17T07:41:20.748Z,13.66
2019-05-17T07:43:51.491Z,13.79
2019-05-17T07:46:21.716Z,13.78
2019-05-17T07:48:52.930Z,13.95
2019-05-17T07:51:23.095Z,14.00
2019-05-17T07:53:53.251Z,14.15
2019-05-17T07:56:23.520Z,14.24
2019-05-17T07:58:54.561Z,14.29
2019-05-17T08:01:26.310Z,14.04
2019-05-17T08:03:56.493Z,14.01
2019-05-17T08:06:26.816Z,14.14
2019-05-17T08:09:01.161Z,14.06
2019-05-17T08:11:31.105Z,14.15
2019-05-17T08:14:02.841Z,14.26
2019-05-17T08:16:33.054Z,14.01
2019-05-17T08:19:03.225Z,14.31
2019-05-17T08:21:33.463Z,14.32
2019-05-17T08:24:03.604Z,14.43
2019-05-17T08:26:33.893Z,14.22
2019-05-17T08:29:05.592Z,14.25
2019-05-17T08:31:35.765Z,14.23
2019-05-17T08:34:06.051Z,14.34
2019-05-17T08:36:36.207Z,14.44
2019-05-17T08:39:10.128Z,14.15
2019-05-17T08:41:40.558Z,14.34
2019-05-17T08:44:10.825Z,14.23
2019-05-17T08:46:41.036Z,14.12
2019-05-17T08:49:11.243Z,14.58
2019-05-17T08:51:41.490Z,14.95
2019-05-17T08:54:11.694Z,14.58
2019-05-17T08:56:41.806Z,14.83
2019-05-17T08:59:11.972Z,14.95
2019-05-17T09:01:42.269Z,15.98
2019-05-17T09:04:12.392Z,15.58
2019-05-17T09:06:44.212Z,15.37
2019-05-17T09:09:14.376Z,15.05
2019-05-17T09:11:44.616Z,15.23
2019-05-17T09:14:14.772Z,15.58
2019-05-17T09:16:44.911Z,15.66
2019-05-17T09:19:16.434Z,15.50
2019-05-17T09:21:53.941Z,15.46
2019-05-17T09:24:24.231Z,15.52
2019-05-17T09:26:55.315Z,15.51
2019-05-17T09:29:25.581Z,15.50
2019-05-17T09:31:55.729Z,15.46
2019-05-17T09:34:25.879Z,15.44
2019-05-17T09:36:56.091Z,15.39
2019-05-17T09:39:26.355Z,15.56
2019-05-17T09:41:56.548Z,15.48
2019-05-17T09:44:26.699Z,15.49
2019-05-17T09:46:59.343Z,15.42
2019-05-17T09:49:29.934Z,15.50
2019-05-17T09:52:00.282Z,15.38
2019-05-17T09:54:41.439Z,15.31
2019-05-17T09:57:02.645Z,15.28
2019-05-17T09:59:32.845Z,15.57
2019-05-17T10:02:04.228Z,15.32
2019-05-17T10:04:34.440Z,15.21
2019-05-17T10:07:04.622Z,15.14
2019-05-17T10:09:35.515Z,15.45
2019-05-17T10:12:05.868Z,15.34
2019-05-17T10:14:36.037Z,15.56
2019-05-17T10:17:06.386Z,15.47
2019-05-17T10:19:36.590Z,15.19
2019-05-17T10:22:06.773Z,15.47
2019-05-17T10:24:39.651Z,15.18
2019-05-17T10:27:10.925Z,15.64
2019-05-17T10:29:40.819Z,14.99
2019-05-17T10:32:11.885Z,14.72
2019-05-17T10:34:42.129Z,14.64
2019-05-17T10:37:14.314Z,14.56
2019-05-17T10:39:44.591Z,14.57
2019-05-17T10:42:15.865Z,14.20
2019-05-17T10:44:47.804Z,14.22
2019-05-17T10:47:19.559Z,14.42
2019-05-17T10:49:50.740Z,14.41
2019-05-17T10:52:21.016Z,14.68
2019-05-17T10:54:51.851Z,14.85
2019-05-17T10:57:24.905Z,15.37
2019-05-17T10:59:55.226Z,15.39
2019-05-17T11:02:25.575Z,15.02
2019-05-17T11:04:55.830Z,15.16
2019-05-17T11:07:26.136Z,15.19
2019-05-17T11:09:56.347Z,15.23
2019-05-17T11:12:26.593Z,15.14
2019-05-17T11:15:10.242Z,15.47
2019-05-17T11:17:31.095Z,15.50
2019-05-17T11:20:01.443Z,15.38
2019-05-17T11:22:31.710Z,15.05
2019-05-17T11:25:02.106Z,15.31
2019-05-17T11:27:32.629Z,14.84
2019-05-17T11:30:02.849Z,14.93
2019-05-17T11:32:33.107Z,14.72
2019-05-17T11:35:03.449Z,14.80
2019-05-17T11:37:34.366Z,14.91
2019-05-17T11:40:08.000Z,14.88
2019-05-17T11:42:37.032Z,14.92
2019-05-17T11:45:07.307Z,15.67
2019-05-17T11:47:37.472Z,16.04
2019-05-17T11:50:08.426Z,16.42
2019-05-17T11:52:38.582Z,16.12
2019-05-17T11:55:08.808Z,16.19
2019-05-17T11:57:40.906Z,16.58
2019-05-17T12:00:11.961Z,16.70
2019-05-17T12:02:42.123Z,17.81
2019-05-17T12:05:13.295Z,17.76
2019-05-17T12:07:44.406Z,18.47
2019-05-17T12:10:15.253Z,18.41
2019-05-17T12:12:45.442Z,18.46
2019-05-17T12:15:15.658Z,17.61
2019-05-17T12:17:45.833Z,18.56
2019-05-17T12:20:16.599Z,17.66
2019-05-17T12:22:46.849Z,17.46
2019-05-17T12:25:17.066Z,17.06
2019-05-17T12:27:47.544Z,17.04
2019-05-17T12:30:17.883Z,16.81
2019-05-17T12:32:48.196Z,16.82
2019-05-17T12:35:19.567Z,16.64
2019-05-17T12:37:49.958Z,16.60
2019-05-17T12:40:20.276Z,16.77
2019-05-17T12:42:50.565Z,16.72
2019-05-17T12:45:23.569Z,16.19
2019-05-17T12:47:53.841Z,16.33
2019-05-17T12:50:24.139Z,15.84
2019-05-17T12:52:54.362Z,15.16
2019-05-17T12:55:24.491Z,15.47
2019-05-17T12:57:56.849Z,15.38
2019-05-17T13:00:27.045Z,15.55
2019-05-17T13:02:57.312Z,15.24
2019-05-17T13:05:27.460Z,15.47
2019-05-17T13:07:57.682Z,15.60
2019-05-17T13:10:27.796Z,15.75
2019-05-17T13:12:58.068Z,15.80
2019-05-17T13:15:28.203Z,16.09
2019-05-17T13:17:58.451Z,15.80
2019-05-17T13:20:38.119Z,16.05
2019-05-17T13:23:08.351Z,16.20
2019-05-17T13:25:38.602Z,16.36
2019-05-17T13:28:08.811Z,16.35
2019-05-17T13:30:38.965Z,15.99
2019-05-17T13:33:10.546Z,15.91
2019-05-17T13:35:40.695Z,15.94
2019-05-17T13:38:10.985Z,15.61
2019-05-17T13:40:41.165Z,15.74
2019-05-17T13:43:12.239Z,15.89
2019-05-17T13:45:43.933Z,15.76
2019-05-17T13:48:15.335Z,15.87
2019-05-17T13:50:45.505Z,15.67
2019-05-17T13:53:15.932Z,15.70
2019-05-17T13:55:46.166Z,15.77
2019-05-17T13:58:16.457Z,15.91
2019-05-17T14:00:46.616Z,16.03
2019-05-17T14:03:19.359Z,16.07
2019-05-17T14:05:49.570Z,15.97
2019-05-17T14:08:19.725Z,15.86
2019-05-17T14:10:50.018Z,15.97
2019-05-17T14:13:20.325Z,15.77
2019-05-17T14:15:51.656Z,15.75
2019-05-17T14:18:22.003Z,15.63
2019-05-17T14:20:52.208Z,15.75
2019-05-17T14:23:23.532Z,15.62
2019-05-17T14:25:53.766Z,15.55
2019-05-17T14:28:23.975Z,15.47
2019-05-17T14:30:54.187Z,15.57
2019-05-17T14:33:24.411Z,15.69
2019-05-17T14:35:56.226Z,15.78
2019-05-17T14:38:26.417Z,15.68
2019-05-17T14:41:06.349Z,15.75
2019-05-17T14:43:31.742Z,15.55
2019-05-17T14:46:02.297Z,15.57
2019-05-17T14:48:32.492Z,15.63
2019-05-17T14:51:02.686Z,15.50
2019-05-17T14:53:32.915Z,15.67
2019-05-17T14:56:03.143Z,15.45
2019-05-17T14:58:33.264Z,15.45
2019-05-17T15:01:03.530Z,15.25
2019-05-17T15:03:33.706Z,15.27
2019-05-17T15:06:03.885Z,15.29
2019-05-17T15:08:34.014Z,15.31
2019-05-17T15:11:04.271Z,15.25
2019-05-17T15:13:35.343Z,15.15
2019-05-17T15:16:07.127Z,15.40
2019-05-17T15:18:37.266Z,15.46
2019-05-17T15:21:07.449Z,15.55
2019-05-17T15:23:37.602Z,15.62
2019-05-17T15:26:07.767Z,15.64
2019-05-17T15:28:37.926Z,15.65
2019-05-17T15:31:08.184Z,15.54
2019-05-17T15:33:38.378Z,15.55
2019-05-17T15:36:08.683Z,15.61
2019-05-17T15:38:39.788Z,15.52
2019-05-17T15:41:09.999Z,15.72
2019-05-17T15:43:40.182Z,15.73
2019-05-17T15:46:13.461Z,15.74
2019-05-17T15:48:43.669Z,15.64
2019-05-17T15:51:14.811Z,15.72
2019-05-17T15:53:45.036Z,15.71
2019-05-17T15:56:15.235Z,15.60
2019-05-17T15:58:45.439Z,15.55
2019-05-17T16:01:15.633Z,15.62
2019-05-17T16:03:45.911Z,15.55
2019-05-17T16:06:16.341Z,15.32
2019-05-17T16:08:49.586Z,15.39
2019-05-17T16:11:20.001Z,15.62
2019-05-17T16:13:50.428Z,15.40
2019-05-17T16:16:20.583Z,15.36
2019-05-17T16:18:50.746Z,15.36
2019-05-17T16:21:20.941Z,15.35
2019-05-17T16:23:51.223Z,15.38
2019-05-17T16:26:21.395Z,15.34
2019-05-17T16:28:51.535Z,15.09
2019-05-17T16:31:21.757Z,15.15
2019-05-17T16:33:52.102Z,15.11
2019-05-17T16:36:22.186Z,15.05
2019-05-17T16:38:52.414Z,15.10
2019-05-17T16:41:22.668Z,15.00
2019-05-17T16:43:52.979Z,14.82
2019-05-17T16:46:23.141Z,14.96
2019-05-17T16:48:53.396Z,14.87
2019-05-17T16:51:23.636Z,14.81
2019-05-17T16:53:53.863Z,14.82
2019-05-17T16:56:24.045Z,14.74
2019-05-17T16:58:54.298Z,14.71
2019-05-17T17:01:24.592Z,14.49
2019-05-17T17:03:54.822Z,14.36
2019-05-17T17:06:25.022Z,14.46
2019-05-17T17:08:55.688Z,14.59
2019-05-17T17:11:25.833Z,14.60
2019-05-17T17:13:55.979Z,14.54
2019-05-17T17:16:26.163Z,14.45
2019-05-17T17:18:56.599Z,14.41
2019-05-17T17:21:26.808Z,14.32
2019-05-17T17:23:56.853Z,14.26
2019-05-17T17:26:27.123Z,14.30
2019-05-17T17:28:57.301Z,14.16
2019-05-17T17:31:28.588Z,14.21
2019-05-17T17:33:58.850Z,14.07
2019-05-17T17:36:29.142Z,14.05
2019-05-17T17:39:00.424Z,14.09
2019-05-17T17:41:32.094Z,14.09
2019-05-17T17:44:02.678Z,14.03
2019-05-17T17:46:32.846Z,13.99
2019-05-17T17:49:02.971Z,14.06
2019-05-17T17:51:33.420Z,14.03
2019-05-17T17:54:03.512Z,14.15
2019-05-17T17:56:33.722Z,14.13
2019-05-17T17:59:04.059Z,14.00
2019-05-17T18:01:34.221Z,14.10
2019-05-17T18:04:04.440Z,14.02
2019-05-17T18:06:34.686Z,14.12
2019-05-17T18:09:05.854Z,14.14
2019-05-17T18:11:36.892Z,14.13
2019-05-17T18:14:13.296Z,14.15
2019-05-17T18:16:38.924Z,14.22
2019-05-17T18:19:09.122Z,14.13
2019-05-17T18:21:39.395Z,13.96
2019-05-17T18:24:09.732Z,13.93
2019-05-17T18:26:39.896Z,14.01
2019-05-17T18:29:11.478Z,13.93
2019-05-17T18:31:41.671Z,13.95
2019-05-17T18:34:12.549Z,13.94
2019-05-17T18:36:42.754Z,13.81
2019-05-17T18:39:15.060Z,13.81
2019-05-17T18:41:45.230Z,13.80
2019-05-17T18:44:27.160Z,13.73
2019-05-17T18:46:48.332Z,13.69
2019-05-17T18:49:18.515Z,13.66
2019-05-17T18:51:48.980Z,13.47
2019-05-17T18:54:19.579Z,13.57
2019-05-17T18:56:52.537Z,13.70
2019-05-17T18:59:25.159Z,13.57
2019-05-17T19:01:58.927Z,13.39
2019-05-17T19:04:30.826Z,13.28
2019-05-17T19:07:02.296Z,13.45
2019-05-17T19:09:33.036Z,13.35
2019-05-17T19:12:03.620Z,13.22
2019-05-17T19:14:42.448Z,13.19
2019-05-17T19:17:09.033Z,13.22
2019-05-17T19:19:43.053Z,13.26
2019-05-17T19:22:19.273Z,13.07
2019-05-17T19:24:51.310Z,13.20
2019-05-17T19:27:30.511Z,13.21
2019-05-17T19:30:03.144Z,13.06
2019-05-17T19:32:39.402Z,13.08
2019-05-17T19:35:11.247Z,13.19
2019-05-17T19:37:54.747Z,13.08
2019-05-17T19:40:29.346Z,13.01
2019-05-17T19:43:08.955Z,13.03
2019-05-17T19:45:39.203Z,13.02
2019-05-17T19:48:12.687Z,13.07
2019-05-17T19:50:46.726Z,13.09
2019-05-17T19:53:22.293Z,13.07
2019-05-17T19:55:54.648Z,13.01
2019-05-17T19:58:35.494Z,13.06
2019-05-17T20:01:06.000Z,12.97
2019-05-17T20:03:36.428Z,13.00
2019-05-17T20:06:07.053Z,12.86
2019-05-17T20:08:52.885Z,13.03
2019-05-17T20:11:34.885Z,12.82
2019-05-17T20:14:12.024Z,12.81
2019-05-17T20:16:43.959Z,12.87
2019-05-17T20:19:14.258Z,12.92
2019-05-17T20:21:48.042Z,12.85
2019-05-17T20:24:20.807Z,12.86
2019-05-17T20:26:51.011Z,12.84
2019-05-17T20:29:29.532Z,12.82
2019-05-17T20:32:03.449Z,12.89
2019-05-17T20:34:40.697Z,12.74
2019-05-17T20:37:18.248Z,12.77
2019-05-17T20:39:50.235Z,12.71
2019-05-17T20:42:22.808Z,12.75
2019-05-17T20:44:56.062Z,12.62
2019-05-17T20:47:26.199Z,12.67
2019-05-17T20:49:56.378Z,12.57
2019-05-17T20:52:26.513Z,12.64
2019-05-17T20:54:56.719Z,12.55
2019-05-17T20:57:26.901Z,12.68
2019-05-17T20:59:57.138Z,12.59
2019-05-17T21:02:27.408Z,12.54
2019-05-17T21:04:57.732Z,12.55
2019-05-17T21:07:29.432Z,12.57
2019-05-17T21:09:59.605Z,12.65
2019-05-17T21:12:32.619Z,12.51
2019-05-17T21:15:02.792Z,12.51
2019-05-17T21:17:33.156Z,12.36
2019-05-17T21:20:03.640Z,12.46
2019-05-17T21:22:33.945Z,12.48
2019-05-17T21:25:04.287Z,12.47
2019-05-17T21:27:36.058Z,12.55
2019-05-17T21:30:07.979Z,12.45
2019-05-17T21:32:38.243Z,12.34
2019-05-17T21:35:09.367Z,12.27
2019-05-17T21:37:41.298Z,12.25
2019-05-17T21:40:12.348Z,12.26
2019-05-17T21:42:42.648Z,12.24
2019-05-17T21:45:12.904Z,12.20
2019-05-17T21:47:43.190Z,12.25
2019-05-17T21:50:13.560Z,12.20
2019-05-17T21:52:43.914Z,12.18
2019-05-17T21:55:14.348Z,12.20
2019-05-17T21:57:45.738Z,12.02
2019-05-17T22:00:51.723Z,12.02
2019-05-17T22:03:22.205Z,11.97
2019-05-17T22:05:54.065Z,12.00
2019-05-17T22:08:24.177Z,11.84
2019-05-17T22:10:54.381Z,11.94
2019-05-17T22:13:24.503Z,12.03
2019-05-17T22:15:54.637Z,12.09
2019-05-17T22:18:24.787Z,11.94
2019-05-17T22:20:54.903Z,11.96
2019-05-17T22:23:25.027Z,11.81
2019-05-17T22:25:55.139Z,11.87
2019-05-17T22:28:25.360Z,11.85
2019-05-17T22:30:55.511Z,11.76
2019-05-17T22:33:25.807Z,11.76
2019-05-17T22:35:59.989Z,11.93
2019-05-17T22:38:30.128Z,11.92
2019-05-17T22:41:00.258Z,12.02
2019-05-17T22:43:31.382Z,11.97
2019-05-17T22:46:01.482Z,11.98
2019-05-17T22:48:31.634Z,11.79
2019-05-17T22:51:01.770Z,11.92
2019-05-17T22:53:31.908Z,11.88
2019-05-17T22:56:02.028Z,11.82
2019-05-17T22:58:38.752Z,11.82
2019-05-17T23:01:11.996Z,11.99
2019-05-17T23:03:46.284Z,12.06
2019-05-17T23:06:16.702Z,11.99
2019-05-17T23:08:47.120Z,11.98
2019-05-17T23:11:17.478Z,11.84
2019-05-17T23:13:48.821Z,11.79
2019-05-17T23:16:22.739Z,11.93
2019-05-17T23:19:12.918Z,12.01
2019-05-17T23:21:48.484Z,11.84
2019-05-17T23:24:19.002Z,11.99
2019-05-17T23:26:49.455Z,11.79
2019-05-17T23:29:23.955Z,11.75
2019-05-17T23:31:57.464Z,12.02
2019-05-17T23:34:28.123Z,11.85
2019-05-17T23:36:59.750Z,11.85
2019-05-17T23:39:31.576Z,11.67
2019-05-17T23:42:01.851Z,11.86
2019-05-17T23:44:32.067Z,11.71
2019-05-17T23:47:07.254Z,11.92
2019-05-17T23:49:34.272Z,11.78
2019-05-17T23:52:04.540Z,11.78
2019-05-17T23:54:34.783Z,11.64
2019-05-17T23:57:04.998Z,11.62
2019-05-17T23:59:35.224Z,11.74
